sensor_id;sensor_type;location;lat;lon;timestamp;P1;durP1;ratioP1;P2;durP2;ratioP2
19374;SDS011;9823;50.936;4.046;2023-05-06T00:01:40;8.37;;;3.07;;
19374;SDS011;9823;50.936;4.046;2023-05-06T00:04:08;6.57;;;3.10;;
19374;SDS011;9823;50.936;4.046;2023-05-06T00:06:34;6.00;;;2.80;;
19374;SDS011;9823;50.936;4.046;2023-05-06T00:09:08;4.17;;;2.90;;
19374;SDS011;9823;50.936;4.046;2023-05-06T00:11:35;5.73;;;3.00;;
19374;SDS011;9823;50.936;4.046;2023-05-06T00:14:01;7.23;;;3.03;;
19374;SDS011;9823;50.936;4.046;2023-05-06T00:16:27;4.77;;;3.00;;
19374;SDS011;9823;50.936;4.046;2023-05-06T00:18:53;6.33;;;3.47;;
19374;SDS011;9823;50.936;4.046;2023-05-06T00:21:19;4.53;;;2.97;;
19374;SDS011;9823;50.936;4.046;2023-05-06T00:23:48;11.77;;;3.07;;
19374;SDS011;9823;50.936;4.046;2023-05-06T00:26:14;4.40;;;3.13;;
19374;SDS011;9823;50.936;4.046;2023-05-06T00:28:40;4.30;;;3.20;;
19374;SDS011;9823;50.936;4.046;2023-05-06T00:31:08;7.23;;;3.30;;
19374;SDS011;9823;50.936;4.046;2023-05-06T00:33:34;4.50;;;3.10;;
19374;SDS011;9823;50.936;4.046;2023-05-06T00:36:03;5.50;;;3.43;;
19374;SDS011;9823;50.936;4.046;2023-05-06T00:38:31;7.77;;;3.10;;
19374;SDS011;9823;50.936;4.046;2023-05-06T00:41:00;7.00;;;2.70;;
19374;SDS011;9823;50.936;4.046;2023-05-06T00:43:27;6.43;;;3.10;;
19374;SDS011;9823;50.936;4.046;2023-05-06T00:45:55;5.33;;;2.97;;
19374;SDS011;9823;50.936;4.046;2023-05-06T00:48:24;5.17;;;3.03;;
19374;SDS011;9823;50.936;4.046;2023-05-06T00:50:53;6.13;;;3.73;;
19374;SDS011;9823;50.936;4.046;2023-05-06T00:53:19;5.30;;;3.20;;
19374;SDS011;9823;50.936;4.046;2023-05-06T00:55:46;5.43;;;3.40;;
19374;SDS011;9823;50.936;4.046;2023-05-06T00:58:15;8.03;;;3.63;;
19374;SDS011;9823;50.936;4.046;2023-05-06T01:00:42;6.67;;;3.10;;
19374;SDS011;9823;50.936;4.046;2023-05-06T01:03:08;6.67;;;3.83;;
19374;SDS011;9823;50.936;4.046;2023-05-06T01:05:37;6.17;;;3.13;;
19374;SDS011;9823;50.936;4.046;2023-05-06T01:13:11;5.13;;;3.57;;
19374;SDS011;9823;50.936;4.046;2023-05-06T01:15:43;6.97;;;3.63;;
19374;SDS011;9823;50.936;4.046;2023-05-06T01:18:10;9.73;;;4.37;;
19374;SDS011;9823;50.936;4.046;2023-05-06T01:20:38;5.70;;;3.70;;
19374;SDS011;9823;50.936;4.046;2023-05-06T01:23:13;7.77;;;3.97;;
19374;SDS011;9823;50.936;4.046;2023-05-06T01:25:39;5.77;;;3.70;;
19374;SDS011;9823;50.936;4.046;2023-05-06T01:28:06;5.83;;;3.77;;
19374;SDS011;9823;50.936;4.046;2023-05-06T01:30:56;6.83;;;3.47;;
19374;SDS011;9823;50.936;4.046;2023-05-06T01:41:07;7.47;;;3.70;;
19374;SDS011;9823;50.936;4.046;2023-05-06T01:43:37;6.77;;;3.63;;
19374;SDS011;9823;50.936;4.046;2023-05-06T01:46:06;5.50;;;3.77;;
19374;SDS011;9823;50.936;4.046;2023-05-06T01:48:37;7.40;;;4.33;;
19374;SDS011;9823;50.936;4.046;2023-05-06T01:51:04;7.60;;;4.57;;
19374;SDS011;9823;50.936;4.046;2023-05-06T01:53:30;9.67;;;4.63;;
19374;SDS011;9823;50.936;4.046;2023-05-06T01:55:57;8.50;;;4.67;;
19374;SDS011;9823;50.936;4.046;2023-05-06T01:58:23;8.53;;;5.67;;
19374;SDS011;9823;50.936;4.046;2023-05-06T02:00:51;11.43;;;6.27;;
19374;SDS011;9823;50.936;4.046;2023-05-06T02:03:17;11.80;;;6.10;;
19374;SDS011;9823;50.936;4.046;2023-05-06T02:05:45;10.13;;;6.17;;
19374;SDS011;9823;50.936;4.046;2023-05-06T02:08:11;11.40;;;6.73;;
19374;SDS011;9823;50.936;4.046;2023-05-06T02:10:40;10.60;;;6.60;;
19374;SDS011;9823;50.936;4.046;2023-05-06T02:13:06;8.83;;;6.17;;
19374;SDS011;9823;50.936;4.046;2023-05-06T02:15:32;10.40;;;6.60;;
19374;SDS011;9823;50.936;4.046;2023-05-06T02:17:58;10.47;;;6.37;;
19374;SDS011;9823;50.936;4.046;2023-05-06T02:20:29;10.80;;;6.60;;
19374;SDS011;9823;50.936;4.046;2023-05-06T02:22:55;11.27;;;6.43;;
19374;SDS011;9823;50.936;4.046;2023-05-06T02:25:23;11.83;;;7.07;;
19374;SDS011;9823;50.936;4.046;2023-05-06T02:27:49;12.97;;;6.27;;
19374;SDS011;9823;50.936;4.046;2023-05-06T02:30:15;11.07;;;6.37;;
19374;SDS011;9823;50.936;4.046;2023-05-06T02:32:41;13.90;;;7.07;;
19374;SDS011;9823;50.936;4.046;2023-05-06T02:35:07;10.97;;;5.97;;
19374;SDS011;9823;50.936;4.046;2023-05-06T02:37:42;12.63;;;6.10;;
19374;SDS011;9823;50.936;4.046;2023-05-06T02:40:09;12.40;;;6.00;;
19374;SDS011;9823;50.936;4.046;2023-05-06T02:42:37;10.37;;;6.33;;
19374;SDS011;9823;50.936;4.046;2023-05-06T02:45:03;10.30;;;6.30;;
19374;SDS011;9823;50.936;4.046;2023-05-06T02:47:29;12.73;;;6.20;;
19374;SDS011;9823;50.936;4.046;2023-05-06T02:49:55;11.20;;;5.60;;
19374;SDS011;9823;50.936;4.046;2023-05-06T02:52:21;11.20;;;7.20;;
19374;SDS011;9823;50.936;4.046;2023-05-06T02:54:47;9.40;;;6.10;;
19374;SDS011;9823;50.936;4.046;2023-05-06T02:57:16;9.97;;;6.33;;
19374;SDS011;9823;50.936;4.046;2023-05-06T02:59:42;13.47;;;6.30;;
19374;SDS011;9823;50.936;4.046;2023-05-06T03:02:10;10.00;;;6.23;;
19374;SDS011;9823;50.936;4.046;2023-05-06T03:04:36;11.87;;;6.53;;
19374;SDS011;9823;50.936;4.046;2023-05-06T03:07:03;10.93;;;6.87;;
19374;SDS011;9823;50.936;4.046;2023-05-06T03:09:29;9.77;;;6.50;;
19374;SDS011;9823;50.936;4.046;2023-05-06T03:11:55;12.40;;;6.83;;
19374;SDS011;9823;50.936;4.046;2023-05-06T03:14:21;11.10;;;6.40;;
19374;SDS011;9823;50.936;4.046;2023-05-06T03:16:50;12.20;;;5.90;;
19374;SDS011;9823;50.936;4.046;2023-05-06T03:19:16;12.00;;;6.87;;
19374;SDS011;9823;50.936;4.046;2023-05-06T03:21:42;9.23;;;5.73;;
19374;SDS011;9823;50.936;4.046;2023-05-06T03:24:08;11.07;;;6.07;;
19374;SDS011;9823;50.936;4.046;2023-05-06T03:26:34;11.27;;;6.63;;
19374;SDS011;9823;50.936;4.046;2023-05-06T03:29:00;11.13;;;6.53;;
19374;SDS011;9823;50.936;4.046;2023-05-06T03:31:26;10.50;;;5.97;;
19374;SDS011;9823;50.936;4.046;2023-05-06T03:33:52;9.90;;;6.17;;
19374;SDS011;9823;50.936;4.046;2023-05-06T03:36:18;11.70;;;6.47;;
19374;SDS011;9823;50.936;4.046;2023-05-06T03:38:45;8.97;;;6.10;;
19374;SDS011;9823;50.936;4.046;2023-05-06T03:41:14;12.17;;;5.60;;
19374;SDS011;9823;50.936;4.046;2023-05-06T03:43:40;10.63;;;5.90;;
19374;SDS011;9823;50.936;4.046;2023-05-06T03:46:06;11.80;;;6.47;;
19374;SDS011;9823;50.936;4.046;2023-05-06T03:48:32;11.20;;;6.07;;
19374;SDS011;9823;50.936;4.046;2023-05-06T03:50:58;12.03;;;6.57;;
19374;SDS011;9823;50.936;4.046;2023-05-06T03:53:24;12.07;;;6.40;;
19374;SDS011;9823;50.936;4.046;2023-05-06T03:55:52;10.70;;;6.07;;
19374;SDS011;9823;50.936;4.046;2023-05-06T03:58:18;16.27;;;6.07;;
19374;SDS011;9823;50.936;4.046;2023-05-06T04:00:47;12.10;;;6.43;;
19374;SDS011;9823;50.936;4.046;2023-05-06T04:03:13;12.87;;;6.70;;
19374;SDS011;9823;50.936;4.046;2023-05-06T04:05:41;11.13;;;6.03;;
19374;SDS011;9823;50.936;4.046;2023-05-06T04:08:07;9.73;;;6.00;;
19374;SDS011;9823;50.936;4.046;2023-05-06T04:10:37;11.60;;;6.63;;
19374;SDS011;9823;50.936;4.046;2023-05-06T04:13:05;9.47;;;6.43;;
19374;SDS011;9823;50.936;4.046;2023-05-06T04:15:34;10.80;;;6.53;;
19374;SDS011;9823;50.936;4.046;2023-05-06T04:18:00;11.47;;;6.50;;
19374;SDS011;9823;50.936;4.046;2023-05-06T04:20:26;12.17;;;6.40;;
19374;SDS011;9823;50.936;4.046;2023-05-06T04:22:55;10.23;;;6.70;;
19374;SDS011;9823;50.936;4.046;2023-05-06T04:25:21;12.87;;;6.50;;
19374;SDS011;9823;50.936;4.046;2023-05-06T04:27:50;12.93;;;7.00;;
19374;SDS011;9823;50.936;4.046;2023-05-06T04:30:16;11.37;;;6.47;;
19374;SDS011;9823;50.936;4.046;2023-05-06T04:32:42;9.93;;;6.13;;
19374;SDS011;9823;50.936;4.046;2023-05-06T04:35:08;11.77;;;6.60;;
19374;SDS011;9823;50.936;4.046;2023-05-06T04:37:36;12.33;;;6.77;;
19374;SDS011;9823;50.936;4.046;2023-05-06T04:40:02;11.47;;;6.70;;
19374;SDS011;9823;50.936;4.046;2023-05-06T04:42:32;14.00;;;6.57;;
19374;SDS011;9823;50.936;4.046;2023-05-06T04:44:58;11.20;;;6.63;;
19374;SDS011;9823;50.936;4.046;2023-05-06T04:47:27;13.13;;;6.97;;
19374;SDS011;9823;50.936;4.046;2023-05-06T04:49:53;13.80;;;6.17;;
19374;SDS011;9823;50.936;4.046;2023-05-06T04:52:26;15.53;;;7.63;;
19374;SDS011;9823;50.936;4.046;2023-05-06T04:54:52;11.67;;;6.63;;
19374;SDS011;9823;50.936;4.046;2023-05-06T04:57:18;12.93;;;7.40;;
19374;SDS011;9823;50.936;4.046;2023-05-06T04:59:44;10.60;;;6.57;;
19374;SDS011;9823;50.936;4.046;2023-05-06T05:02:10;17.67;;;7.33;;
19374;SDS011;9823;50.936;4.046;2023-05-06T05:04:36;12.13;;;7.00;;
19374;SDS011;9823;50.936;4.046;2023-05-06T05:07:05;20.70;;;7.47;;
19374;SDS011;9823;50.936;4.046;2023-05-06T05:09:33;15.87;;;6.87;;
19374;SDS011;9823;50.936;4.046;2023-05-06T05:12:02;13.70;;;6.40;;
19374;SDS011;9823;50.936;4.046;2023-05-06T05:14:28;11.07;;;6.23;;
19374;SDS011;9823;50.936;4.046;2023-05-06T05:16:54;12.93;;;6.53;;
19374;SDS011;9823;50.936;4.046;2023-05-06T05:19:20;11.13;;;6.60;;
19374;SDS011;9823;50.936;4.046;2023-05-06T05:21:47;14.93;;;7.17;;
19374;SDS011;9823;50.936;4.046;2023-05-06T05:24:15;13.30;;;6.53;;
19374;SDS011;9823;50.936;4.046;2023-05-06T05:26:44;12.20;;;6.43;;
19374;SDS011;9823;50.936;4.046;2023-05-06T05:29:10;13.73;;;6.10;;
19374;SDS011;9823;50.936;4.046;2023-05-06T05:31:36;12.13;;;5.33;;
19374;SDS011;9823;50.936;4.046;2023-05-06T05:34:02;11.50;;;5.97;;
19374;SDS011;9823;50.936;4.046;2023-05-06T05:36:28;10.27;;;6.00;;
19374;SDS011;9823;50.936;4.046;2023-05-06T05:38:54;11.83;;;6.10;;
19374;SDS011;9823;50.936;4.046;2023-05-06T05:41:22;13.00;;;6.17;;
19374;SDS011;9823;50.936;4.046;2023-05-06T05:43:50;9.83;;;5.87;;
19374;SDS011;9823;50.936;4.046;2023-05-06T05:46:21;12.20;;;5.87;;
19374;SDS011;9823;50.936;4.046;2023-05-06T05:48:47;11.03;;;5.47;;
19374;SDS011;9823;50.936;4.046;2023-05-06T05:51:13;13.40;;;5.60;;
19374;SDS011;9823;50.936;4.046;2023-05-06T05:53:39;12.30;;;5.20;;
19374;SDS011;9823;50.936;4.046;2023-05-06T05:56:07;12.10;;;5.27;;
19374;SDS011;9823;50.936;4.046;2023-05-06T05:58:35;11.77;;;5.30;;
19374;SDS011;9823;50.936;4.046;2023-05-06T06:01:01;10.33;;;4.80;;
19374;SDS011;9823;50.936;4.046;2023-05-06T06:03:30;7.53;;;4.63;;
19374;SDS011;9823;50.936;4.046;2023-05-06T06:05:56;9.60;;;4.80;;
19374;SDS011;9823;50.936;4.046;2023-05-06T06:08:22;8.83;;;4.53;;
19374;SDS011;9823;50.936;4.046;2023-05-06T06:10:48;13.17;;;4.17;;
19374;SDS011;9823;50.936;4.046;2023-05-06T06:13:14;9.17;;;4.93;;
19374;SDS011;9823;50.936;4.046;2023-05-06T06:15:40;7.53;;;4.23;;
19374;SDS011;9823;50.936;4.046;2023-05-06T06:18:06;9.10;;;4.50;;
19374;SDS011;9823;50.936;4.046;2023-05-06T06:20:35;11.07;;;4.63;;
19374;SDS011;9823;50.936;4.046;2023-05-06T06:23:03;9.27;;;4.57;;
19374;SDS011;9823;50.936;4.046;2023-05-06T06:25:29;9.20;;;4.57;;
19374;SDS011;9823;50.936;4.046;2023-05-06T06:27:55;6.10;;;3.70;;
19374;SDS011;9823;50.936;4.046;2023-05-06T06:30:21;6.63;;;3.73;;
19374;SDS011;9823;50.936;4.046;2023-05-06T06:32:51;6.13;;;3.33;;
19374;SDS011;9823;50.936;4.046;2023-05-06T06:35:20;12.77;;;4.10;;
19374;SDS011;9823;50.936;4.046;2023-05-06T06:37:47;7.73;;;3.70;;
19374;SDS011;9823;50.936;4.046;2023-05-06T06:40:15;8.00;;;3.60;;
19374;SDS011;9823;50.936;4.046;2023-05-06T06:42:42;7.57;;;4.20;;
19374;SDS011;9823;50.936;4.046;2023-05-06T06:45:11;6.40;;;3.60;;
19374;SDS011;9823;50.936;4.046;2023-05-06T06:47:38;9.70;;;3.80;;
19374;SDS011;9823;50.936;4.046;2023-05-06T06:50:05;9.20;;;4.80;;
19374;SDS011;9823;50.936;4.046;2023-05-06T06:52:31;7.10;;;3.80;;
19374;SDS011;9823;50.936;4.046;2023-05-06T06:54:57;6.30;;;3.50;;
19374;SDS011;9823;50.936;4.046;2023-05-06T06:57:23;8.67;;;3.40;;
19374;SDS011;9823;50.936;4.046;2023-05-06T06:59:49;8.53;;;3.33;;
19374;SDS011;9823;50.936;4.046;2023-05-06T07:02:21;9.53;;;3.30;;
19374;SDS011;9823;50.936;4.046;2023-05-06T07:04:52;7.33;;;3.67;;
19374;SDS011;9823;50.936;4.046;2023-05-06T07:07:18;6.57;;;3.80;;
19374;SDS011;9823;50.936;4.046;2023-05-06T07:09:44;6.67;;;3.40;;
19374;SDS011;9823;50.936;4.046;2023-05-06T07:12:10;6.03;;;3.60;;
19374;SDS011;9823;50.936;4.046;2023-05-06T07:14:36;12.47;;;4.00;;
19374;SDS011;9823;50.936;4.046;2023-05-06T07:17:02;11.33;;;5.30;;
19374;SDS011;9823;50.936;4.046;2023-05-06T07:19:28;6.67;;;3.67;;
19374;SDS011;9823;50.936;4.046;2023-05-06T07:21:57;8.57;;;4.20;;
19374;SDS011;9823;50.936;4.046;2023-05-06T07:24:23;8.97;;;3.67;;
19374;SDS011;9823;50.936;4.046;2023-05-06T07:26:51;7.37;;;3.60;;
19374;SDS011;9823;50.936;4.046;2023-05-06T07:29:22;7.60;;;4.27;;
19374;SDS011;9823;50.936;4.046;2023-05-06T07:31:48;7.67;;;3.90;;
19374;SDS011;9823;50.936;4.046;2023-05-06T07:34:20;9.63;;;4.67;;
19374;SDS011;9823;50.936;4.046;2023-05-06T07:36:46;7.43;;;4.13;;
19374;SDS011;9823;50.936;4.046;2023-05-06T07:39:15;9.33;;;4.60;;
19374;SDS011;9823;50.936;4.046;2023-05-06T07:41:41;10.20;;;4.00;;
19374;SDS011;9823;50.936;4.046;2023-05-06T07:44:07;7.17;;;4.27;;
19374;SDS011;9823;50.936;4.046;2023-05-06T07:46:35;9.90;;;4.53;;
19374;SDS011;9823;50.936;4.046;2023-05-06T07:49:01;7.60;;;4.10;;
19374;SDS011;9823;50.936;4.046;2023-05-06T07:51:30;9.23;;;3.30;;
19374;SDS011;9823;50.936;4.046;2023-05-06T07:53:59;9.17;;;4.00;;
19374;SDS011;9823;50.936;4.046;2023-05-06T07:56:25;6.53;;;3.47;;
19374;SDS011;9823;50.936;4.046;2023-05-06T07:58:51;6.07;;;3.53;;
19374;SDS011;9823;50.936;4.046;2023-05-06T08:01:24;7.63;;;3.83;;
19374;SDS011;9823;50.936;4.046;2023-05-06T08:03:50;7.13;;;3.90;;
19374;SDS011;9823;50.936;4.046;2023-05-06T08:06:18;6.63;;;3.83;;
19374;SDS011;9823;50.936;4.046;2023-05-06T08:08:47;6.23;;;3.27;;
19374;SDS011;9823;50.936;4.046;2023-05-06T08:11:13;12.90;;;4.20;;
19374;SDS011;9823;50.936;4.046;2023-05-06T08:13:40;6.07;;;3.43;;
19374;SDS011;9823;50.936;4.046;2023-05-06T08:16:10;7.80;;;3.57;;
19374;SDS011;9823;50.936;4.046;2023-05-06T08:18:45;7.13;;;3.80;;
19374;SDS011;9823;50.936;4.046;2023-05-06T08:21:17;13.33;;;4.13;;
19374;SDS011;9823;50.936;4.046;2023-05-06T08:23:46;8.67;;;3.53;;
19374;SDS011;9823;50.936;4.046;2023-05-06T08:26:14;7.87;;;3.27;;
19374;SDS011;9823;50.936;4.046;2023-05-06T08:28:40;7.00;;;3.67;;
19374;SDS011;9823;50.936;4.046;2023-05-06T08:31:09;7.73;;;3.70;;
19374;SDS011;9823;50.936;4.046;2023-05-06T08:33:37;4.80;;;3.30;;
19374;SDS011;9823;50.936;4.046;2023-05-06T08:36:03;8.90;;;3.90;;
19374;SDS011;9823;50.936;4.046;2023-05-06T08:38:29;6.77;;;2.93;;
19374;SDS011;9823;50.936;4.046;2023-05-06T08:41:01;7.23;;;3.17;;
19374;SDS011;9823;50.936;4.046;2023-05-06T08:43:32;7.30;;;3.50;;
19374;SDS011;9823;50.936;4.046;2023-05-06T08:46:02;6.93;;;3.20;;
19374;SDS011;9823;50.936;4.046;2023-05-06T08:48:28;5.37;;;2.80;;
19374;SDS011;9823;50.936;4.046;2023-05-06T08:50:54;6.23;;;2.63;;
19374;SDS011;9823;50.936;4.046;2023-05-06T08:53:24;5.03;;;2.80;;
19374;SDS011;9823;50.936;4.046;2023-05-06T08:55:53;4.93;;;2.83;;
19374;SDS011;9823;50.936;4.046;2023-05-06T08:58:19;5.93;;;3.07;;
19374;SDS011;9823;50.936;4.046;2023-05-06T09:00:45;10.23;;;3.33;;
19374;SDS011;9823;50.936;4.046;2023-05-06T09:03:15;6.40;;;2.80;;
19374;SDS011;9823;50.936;4.046;2023-05-06T09:05:41;5.80;;;3.03;;
19374;SDS011;9823;50.936;4.046;2023-05-06T09:08:07;6.13;;;2.70;;
19374;SDS011;9823;50.936;4.046;2023-05-06T09:10:41;5.87;;;3.27;;
19374;SDS011;9823;50.936;4.046;2023-05-06T09:13:09;6.13;;;2.80;;
19374;SDS011;9823;50.936;4.046;2023-05-06T09:15:42;8.13;;;3.37;;
19374;SDS011;9823;50.936;4.046;2023-05-06T09:18:09;11.53;;;3.50;;
19374;SDS011;9823;50.936;4.046;2023-05-06T09:20:39;6.67;;;3.20;;
19374;SDS011;9823;50.936;4.046;2023-05-06T09:23:05;6.17;;;3.13;;
19374;SDS011;9823;50.936;4.046;2023-05-06T09:25:34;8.40;;;3.40;;
19374;SDS011;9823;50.936;4.046;2023-05-06T09:28:06;6.63;;;3.40;;
19374;SDS011;9823;50.936;4.046;2023-05-06T09:30:32;11.13;;;3.30;;
19374;SDS011;9823;50.936;4.046;2023-05-06T09:33:01;6.83;;;3.27;;
19374;SDS011;9823;50.936;4.046;2023-05-06T09:35:33;6.50;;;2.60;;
19374;SDS011;9823;50.936;4.046;2023-05-06T09:38:02;6.67;;;3.10;;
19374;SDS011;9823;50.936;4.046;2023-05-06T09:40:31;8.47;;;3.30;;
19374;SDS011;9823;50.936;4.046;2023-05-06T09:42:57;11.67;;;4.43;;
19374;SDS011;9823;50.936;4.046;2023-05-06T09:45:24;7.40;;;4.77;;
19374;SDS011;9823;50.936;4.046;2023-05-06T09:47:53;7.40;;;4.33;;
19374;SDS011;9823;50.936;4.046;2023-05-06T09:50:20;6.03;;;3.07;;
19374;SDS011;9823;50.936;4.046;2023-05-06T09:52:49;10.83;;;5.53;;
19374;SDS011;9823;50.936;4.046;2023-05-06T09:55:21;7.40;;;3.10;;
19374;SDS011;9823;50.936;4.046;2023-05-06T09:57:47;8.37;;;3.30;;
19374;SDS011;9823;50.936;4.046;2023-05-06T10:00:14;3.67;;;2.83;;
19374;SDS011;9823;50.936;4.046;2023-05-06T10:02:41;7.13;;;2.50;;
19374;SDS011;9823;50.936;4.046;2023-05-06T10:05:12;4.50;;;2.30;;
19374;SDS011;9823;50.936;4.046;2023-05-06T10:07:41;4.77;;;2.60;;
19374;SDS011;9823;50.936;4.046;2023-05-06T10:10:09;4.27;;;2.47;;
19374;SDS011;9823;50.936;4.046;2023-05-06T10:12:36;7.43;;;2.47;;
19374;SDS011;9823;50.936;4.046;2023-05-06T10:15:02;5.93;;;2.20;;
19374;SDS011;9823;50.936;4.046;2023-05-06T10:17:34;6.17;;;2.57;;
19374;SDS011;9823;50.936;4.046;2023-05-06T10:20:03;7.73;;;2.67;;
19374;SDS011;9823;50.936;4.046;2023-05-06T10:25:08;7.30;;;2.93;;
19374;SDS011;9823;50.936;4.046;2023-05-06T10:27:38;6.40;;;2.60;;
19374;SDS011;9823;50.936;4.046;2023-05-06T10:30:14;4.23;;;2.47;;
19374;SDS011;9823;50.936;4.046;2023-05-06T10:32:43;7.10;;;2.30;;
19374;SDS011;9823;50.936;4.046;2023-05-06T10:37:57;4.53;;;2.00;;
19374;SDS011;9823;50.936;4.046;2023-05-06T10:40:24;3.97;;;1.80;;
19374;SDS011;9823;50.936;4.046;2023-05-06T10:42:50;6.07;;;2.53;;
19374;SDS011;9823;50.936;4.046;2023-05-06T10:45:18;5.90;;;2.40;;
19374;SDS011;9823;50.936;4.046;2023-05-06T10:50:25;5.70;;;2.10;;
19374;SDS011;9823;50.936;4.046;2023-05-06T10:52:53;6.83;;;2.30;;
19374;SDS011;9823;50.936;4.046;2023-05-06T10:55:32;5.90;;;2.33;;
19374;SDS011;9823;50.936;4.046;2023-05-06T10:58:05;5.47;;;2.20;;
19374;SDS011;9823;50.936;4.046;2023-05-06T11:00:36;9.47;;;2.37;;
19374;SDS011;9823;50.936;4.046;2023-05-06T11:03:07;7.73;;;2.40;;
19374;SDS011;9823;50.936;4.046;2023-05-06T11:05:46;6.93;;;2.60;;
19374;SDS011;9823;50.936;4.046;2023-05-06T11:08:22;12.57;;;2.67;;
19374;SDS011;9823;50.936;4.046;2023-05-06T11:10:48;6.73;;;2.77;;
19374;SDS011;9823;50.936;4.046;2023-05-06T11:13:27;3.87;;;1.70;;
19374;SDS011;9823;50.936;4.046;2023-05-06T11:15:57;7.23;;;2.20;;
19374;SDS011;9823;50.936;4.046;2023-05-06T11:26:09;3.40;;;1.60;;
19374;SDS011;9823;50.936;4.046;2023-05-06T11:28:35;4.13;;;1.60;;
19374;SDS011;9823;50.936;4.046;2023-05-06T11:31:01;3.27;;;1.50;;
19374;SDS011;9823;50.936;4.046;2023-05-06T11:33:33;7.93;;;2.07;;
19374;SDS011;9823;50.936;4.046;2023-05-06T11:36:00;5.93;;;1.90;;
19374;SDS011;9823;50.936;4.046;2023-05-06T11:38:44;6.43;;;2.00;;
19374;SDS011;9823;50.936;4.046;2023-05-06T11:41:11;5.90;;;2.30;;
19374;SDS011;9823;50.936;4.046;2023-05-06T11:43:40;4.63;;;2.30;;
19374;SDS011;9823;50.936;4.046;2023-05-06T11:46:10;4.50;;;2.20;;
19374;SDS011;9823;50.936;4.046;2023-05-06T11:48:38;6.23;;;2.00;;
19374;SDS011;9823;50.936;4.046;2023-05-06T11:51:04;5.70;;;2.30;;
19374;SDS011;9823;50.936;4.046;2023-05-06T11:53:35;5.03;;;2.20;;
19374;SDS011;9823;50.936;4.046;2023-05-06T11:56:04;5.97;;;2.00;;
19374;SDS011;9823;50.936;4.046;2023-05-06T11:58:30;5.57;;;2.03;;
19374;SDS011;9823;50.936;4.046;2023-05-06T12:00:57;6.33;;;2.07;;
19374;SDS011;9823;50.936;4.046;2023-05-06T12:03:26;4.47;;;1.60;;
19374;SDS011;9823;50.936;4.046;2023-05-06T12:05:53;5.43;;;1.90;;
19374;SDS011;9823;50.936;4.046;2023-05-06T12:08:24;3.97;;;1.67;;
19374;SDS011;9823;50.936;4.046;2023-05-06T12:10:53;5.10;;;1.70;;
19374;SDS011;9823;50.936;4.046;2023-05-06T12:13:19;4.67;;;1.63;;
19374;SDS011;9823;50.936;4.046;2023-05-06T12:15:46;9.50;;;2.27;;
19374;SDS011;9823;50.936;4.046;2023-05-06T12:18:13;5.03;;;1.50;;
19374;SDS011;9823;50.936;4.046;2023-05-06T12:20:40;6.67;;;1.90;;
19374;SDS011;9823;50.936;4.046;2023-05-06T12:23:07;5.23;;;2.10;;
19374;SDS011;9823;50.936;4.046;2023-05-06T12:25:33;9.27;;;3.00;;
19374;SDS011;9823;50.936;4.046;2023-05-06T12:27:59;4.80;;;2.30;;
19374;SDS011;9823;50.936;4.046;2023-05-06T12:30:31;9.53;;;2.97;;
19374;SDS011;9823;50.936;4.046;2023-05-06T12:32:58;11.10;;;2.63;;
19374;SDS011;9823;50.936;4.046;2023-05-06T12:35:28;6.00;;;1.70;;
19374;SDS011;9823;50.936;4.046;2023-05-06T12:37:55;6.10;;;2.10;;
19374;SDS011;9823;50.936;4.046;2023-05-06T12:40:21;6.40;;;2.03;;
19374;SDS011;9823;50.936;4.046;2023-05-06T12:42:53;7.10;;;1.73;;
19374;SDS011;9823;50.936;4.046;2023-05-06T12:45:23;8.73;;;1.73;;
19374;SDS011;9823;50.936;4.046;2023-05-06T12:47:55;6.67;;;2.07;;
19374;SDS011;9823;50.936;4.046;2023-05-06T12:50:35;7.33;;;2.03;;
19374;SDS011;9823;50.936;4.046;2023-05-06T12:53:02;6.30;;;2.00;;
19374;SDS011;9823;50.936;4.046;2023-05-06T12:55:37;6.07;;;1.83;;
19374;SDS011;9823;50.936;4.046;2023-05-06T12:58:15;5.97;;;1.70;;
19374;SDS011;9823;50.936;4.046;2023-05-06T13:00:41;9.63;;;1.97;;
19374;SDS011;9823;50.936;4.046;2023-05-06T13:03:11;7.30;;;1.80;;
19374;SDS011;9823;50.936;4.046;2023-05-06T13:05:37;9.37;;;2.00;;
19374;SDS011;9823;50.936;4.046;2023-05-06T13:08:08;8.97;;;2.43;;
19374;SDS011;9823;50.936;4.046;2023-05-06T13:10:34;4.53;;;1.90;;
19374;SDS011;9823;50.936;4.046;2023-05-06T13:13:00;5.73;;;1.70;;
19374;SDS011;9823;50.936;4.046;2023-05-06T13:15:26;5.27;;;1.63;;
19374;SDS011;9823;50.936;4.046;2023-05-06T13:17:52;8.27;;;1.47;;
19374;SDS011;9823;50.936;4.046;2023-05-06T13:20:21;7.10;;;2.50;;
19374;SDS011;9823;50.936;4.046;2023-05-06T13:22:53;8.83;;;1.83;;
19374;SDS011;9823;50.936;4.046;2023-05-06T13:25:19;4.93;;;1.77;;
19374;SDS011;9823;50.936;4.046;2023-05-06T13:27:45;8.37;;;1.93;;
19374;SDS011;9823;50.936;4.046;2023-05-06T13:30:14;7.63;;;1.97;;
19374;SDS011;9823;50.936;4.046;2023-05-06T13:32:40;7.40;;;2.40;;
19374;SDS011;9823;50.936;4.046;2023-05-06T13:35:07;13.30;;;2.03;;
19374;SDS011;9823;50.936;4.046;2023-05-06T13:37:33;4.67;;;1.40;;
19374;SDS011;9823;50.936;4.046;2023-05-06T13:40:03;5.53;;;1.80;;
19374;SDS011;9823;50.936;4.046;2023-05-06T13:42:30;6.30;;;2.70;;
19374;SDS011;9823;50.936;4.046;2023-05-06T13:44:58;14.03;;;3.40;;
19374;SDS011;9823;50.936;4.046;2023-05-06T13:47:27;11.77;;;4.70;;
19374;SDS011;9823;50.936;4.046;2023-05-06T13:49:53;7.57;;;2.93;;
19374;SDS011;9823;50.936;4.046;2023-05-06T13:52:21;6.93;;;4.57;;
19374;SDS011;9823;50.936;4.046;2023-05-06T13:54:50;9.03;;;3.80;;
19374;SDS011;9823;50.936;4.046;2023-05-06T13:57:15;10.87;;;4.67;;
19374;SDS011;9823;50.936;4.046;2023-05-06T13:59:45;68.70;;;23.33;;
19374;SDS011;9823;50.936;4.046;2023-05-06T14:02:11;26.90;;;11.47;;
19374;SDS011;9823;50.936;4.046;2023-05-06T14:04:37;8.67;;;3.00;;
19374;SDS011;9823;50.936;4.046;2023-05-06T14:07:03;7.33;;;3.17;;
19374;SDS011;9823;50.936;4.046;2023-05-06T14:09:29;6.23;;;2.30;;
19374;SDS011;9823;50.936;4.046;2023-05-06T14:11:55;10.53;;;1.97;;
19374;SDS011;9823;50.936;4.046;2023-05-06T14:14:21;6.83;;;1.93;;
19374;SDS011;9823;50.936;4.046;2023-05-06T14:16:47;6.40;;;1.93;;
19374;SDS011;9823;50.936;4.046;2023-05-06T14:19:17;6.30;;;2.27;;
19374;SDS011;9823;50.936;4.046;2023-05-06T14:21:43;8.17;;;1.80;;
19374;SDS011;9823;50.936;4.046;2023-05-06T14:24:09;6.37;;;1.87;;
19374;SDS011;9823;50.936;4.046;2023-05-06T14:26:37;7.80;;;1.77;;
19374;SDS011;9823;50.936;4.046;2023-05-06T14:29:04;9.10;;;2.30;;
19374;SDS011;9823;50.936;4.046;2023-05-06T14:31:33;6.53;;;2.03;;
19374;SDS011;9823;50.936;4.046;2023-05-06T14:34:00;4.03;;;1.80;;
19374;SDS011;9823;50.936;4.046;2023-05-06T14:36:26;4.77;;;2.20;;
19374;SDS011;9823;50.936;4.046;2023-05-06T14:38:55;5.00;;;1.87;;
19374;SDS011;9823;50.936;4.046;2023-05-06T14:41:21;8.23;;;2.10;;
19374;SDS011;9823;50.936;4.046;2023-05-06T14:43:49;13.33;;;2.53;;
19374;SDS011;9823;50.936;4.046;2023-05-06T14:46:15;6.43;;;1.97;;
19374;SDS011;9823;50.936;4.046;2023-05-06T14:48:41;7.63;;;2.20;;
19374;SDS011;9823;50.936;4.046;2023-05-06T14:51:08;6.90;;;1.70;;
19374;SDS011;9823;50.936;4.046;2023-05-06T14:53:34;9.23;;;2.13;;
19374;SDS011;9823;50.936;4.046;2023-05-06T14:56:00;9.63;;;2.00;;
19374;SDS011;9823;50.936;4.046;2023-05-06T14:58:26;8.23;;;2.20;;
19374;SDS011;9823;50.936;4.046;2023-05-06T15:00:52;7.13;;;2.30;;
19374;SDS011;9823;50.936;4.046;2023-05-06T15:03:18;9.03;;;2.20;;
19374;SDS011;9823;50.936;4.046;2023-05-06T15:05:44;9.93;;;2.10;;
19374;SDS011;9823;50.936;4.046;2023-05-06T15:08:11;10.10;;;2.00;;
19374;SDS011;9823;50.936;4.046;2023-05-06T15:10:37;8.30;;;2.30;;
19374;SDS011;9823;50.936;4.046;2023-05-06T15:13:03;5.67;;;1.67;;
19374;SDS011;9823;50.936;4.046;2023-05-06T15:15:32;9.23;;;2.30;;
19374;SDS011;9823;50.936;4.046;2023-05-06T15:17:58;11.43;;;4.80;;
19374;SDS011;9823;50.936;4.046;2023-05-06T15:20:24;11.27;;;4.40;;
19374;SDS011;9823;50.936;4.046;2023-05-06T15:22:50;7.87;;;2.60;;
19374;SDS011;9823;50.936;4.046;2023-05-06T15:25:16;12.53;;;3.77;;
19374;SDS011;9823;50.936;4.046;2023-05-06T15:27:42;8.13;;;3.10;;
19374;SDS011;9823;50.936;4.046;2023-05-06T15:30:08;10.97;;;2.20;;